createdAt,value
2023-03-12T00:02:18.561Z,7.85
2023-03-12T00:04:44.968Z,7.93
2023-03-12T00:07:11.379Z,7.70
2023-03-12T00:09:39.170Z,8.15
2023-03-12T00:12:07.307Z,7.68
2023-03-12T00:14:33.821Z,7.57
2023-03-12T00:17:00.324Z,9.32
2023-03-12T00:19:27.063Z,8.35
2023-03-12T00:21:53.477Z,8.60
2023-03-12T00:24:19.911Z,9.80
2023-03-12T00:26:46.339Z,10.95
2023-03-12T00:29:12.796Z,9.52
2023-03-12T00:31:39.477Z,9.13
2023-03-12T00:34:05.956Z,8.27
2023-03-12T00:36:33.360Z,9.07
2023-03-12T00:39:00.865Z,7.80
2023-03-12T00:41:28.441Z,9.43
2023-03-12T00:43:54.871Z,9.15
2023-03-12T00:46:22.133Z,8.85
2023-03-12T00:48:48.797Z,8.05
2023-03-12T00:51:15.938Z,8.27
2023-03-12T00:53:42.430Z,8.00
2023-03-12T00:56:08.947Z,9.13
2023-03-12T00:58:36.269Z,8.60
2023-03-12T01:01:02.950Z,7.95
2023-03-12T01:03:29.654Z,7.70
2023-03-12T01:05:56.145Z,8.40
2023-03-12T01:08:23.326Z,9.82
2023-03-12T01:10:50.170Z,9.35
2023-03-12T01:13:16.693Z,8.73
2023-03-12T01:15:43.292Z,9.35
2023-03-12T01:18:09.921Z,8.80
2023-03-12T01:20:36.484Z,7.95
2023-03-12T01:23:02.921Z,8.40
2023-03-12T01:25:29.717Z,8.48
2023-03-12T01:27:56.111Z,7.93
2023-03-12T01:30:23.653Z,8.35
2023-03-12T01:32:51.619Z,8.25
2023-03-12T01:35:19.110Z,7.75
2023-03-12T01:37:45.686Z,8.10
2023-03-12T01:40:16.121Z,7.15
2023-03-12T01:42:42.700Z,7.55
2023-03-12T01:45:46.816Z,8.27
2023-03-12T01:48:13.334Z,7.63
2023-03-12T01:50:39.747Z,8.93
2023-03-12T01:53:06.408Z,9.18
2023-03-12T01:55:33.082Z,9.73
2023-03-12T01:58:01.573Z,9.50
2023-03-12T02:00:28.508Z,9.13
2023-03-12T02:03:00.235Z,9.65
2023-03-12T02:05:43.423Z,9.38
2023-03-12T02:08:11.576Z,9.13
2023-03-12T02:10:38.110Z,11.43
2023-03-12T02:13:05.334Z,9.50
2023-03-12T02:15:36.224Z,9.52
2023-03-12T02:18:04.173Z,9.77
2023-03-12T02:20:56.754Z,9.05
2023-03-12T02:23:30.302Z,8.65
2023-03-12T02:25:59.879Z,9.00
2023-03-12T02:28:29.600Z,10.00
2023-03-12T02:31:00.246Z,9.52
2023-03-12T02:33:26.843Z,8.57
2023-03-12T02:35:54.256Z,9.23
2023-03-12T02:38:32.987Z,9.50
2023-03-12T02:41:04.766Z,9.18
2023-03-12T02:43:31.236Z,10.88
2023-03-12T02:45:57.947Z,9.48
2023-03-12T02:48:24.666Z,9.95
2023-03-12T02:50:52.325Z,9.30
2023-03-12T02:53:18.820Z,9.07
2023-03-12T02:55:45.239Z,9.10
2023-03-12T02:58:11.632Z,9.45
2023-03-12T03:00:38.244Z,9.23
2023-03-12T03:03:04.678Z,10.20
2023-03-12T03:05:31.323Z,8.38
2023-03-12T03:07:57.737Z,10.57
2023-03-12T03:10:24.221Z,9.38
2023-03-12T03:12:51.377Z,9.65
2023-03-12T03:15:17.934Z,9.27
2023-03-12T03:17:44.497Z,9.50
2023-03-12T03:20:11.899Z,9.70
2023-03-12T03:22:39.379Z,10.57
2023-03-12T03:25:07.258Z,11.38
2023-03-12T03:27:33.947Z,10.05
2023-03-12T03:30:00.364Z,11.45
2023-03-12T03:32:27.368Z,9.25
2023-03-12T03:34:53.893Z,11.32
2023-03-12T03:37:20.500Z,10.88
2023-03-12T03:39:47.093Z,12.05
2023-03-12T03:42:13.621Z,12.10
2023-03-12T03:47:12.958Z,9.75
2023-03-12T03:49:39.426Z,9.85
2023-03-12T03:52:06.372Z,9.82
2023-03-12T03:54:35.898Z,9.77
2023-03-12T03:57:03.435Z,9.82
2023-03-12T03:59:29.887Z,8.70
2023-03-12T04:01:57.037Z,9.05
2023-03-12T04:04:24.143Z,8.65
2023-03-12T04:06:50.898Z,8.40
2023-03-12T04:09:17.462Z,7.63
2023-03-12T04:11:43.930Z,8.95
2023-03-12T04:14:12.488Z,8.57
2023-03-12T04:16:41.527Z,9.45
2023-03-12T04:19:08.191Z,10.35
2023-03-12T04:21:34.761Z,10.32
2023-03-12T04:24:01.659Z,8.35
2023-03-12T04:26:31.968Z,9.70
2023-03-12T04:29:00.464Z,10.90
2023-03-12T04:31:27.218Z,11.70
2023-03-12T04:33:53.644Z,8.35
2023-03-12T04:36:23.001Z,10.10
2023-03-12T04:38:51.105Z,10.35
2023-03-12T04:41:21.157Z,10.05
2023-03-12T04:43:52.317Z,10.60
2023-03-12T04:46:19.809Z,12.93
2023-03-12T04:48:46.258Z,10.98
2023-03-12T04:51:13.802Z,10.75
2023-03-12T04:53:40.635Z,10.32
2023-03-12T04:56:09.229Z,9.48
2023-03-12T04:58:36.870Z,9.43
2023-03-12T05:01:05.542Z,9.23
2023-03-12T05:03:32.726Z,9.05
2023-03-12T05:05:59.549Z,8.60
2023-03-12T05:08:26.369Z,9.07
2023-03-12T05:10:52.895Z,8.32
2023-03-12T05:13:21.719Z,8.98
2023-03-12T05:15:52.174Z,8.35
2023-03-12T05:18:21.271Z,9.38
2023-03-12T05:20:58.101Z,8.30
2023-03-12T05:23:24.635Z,9.43
2023-03-12T05:25:51.064Z,9.15
2023-03-12T05:28:17.553Z,9.27
2023-03-12T05:30:43.960Z,9.18
2023-03-12T05:33:10.425Z,9.30
2023-03-12T05:35:36.937Z,10.40
2023-03-12T05:38:03.585Z,10.57
2023-03-12T05:40:30.612Z,10.45
2023-03-12T05:42:56.997Z,9.93
2023-03-12T05:45:25.859Z,10.30
2023-03-12T05:47:55.215Z,9.65
2023-03-12T05:50:21.716Z,10.57
2023-03-12T05:52:48.135Z,11.88
2023-03-12T05:55:14.669Z,10.77
2023-03-12T05:57:44.328Z,9.30
2023-03-12T06:00:13.839Z,11.52
2023-03-12T06:02:43.358Z,7.38
2023-03-12T06:05:11.763Z,9.93
2023-03-12T06:07:38.630Z,10.43
2023-03-12T06:10:06.394Z,9.77
2023-03-12T06:12:33.128Z,9.80
2023-03-12T06:15:00.266Z,11.05
2023-03-12T06:17:29.550Z,12.20
2023-03-12T06:19:55.998Z,11.23
2023-03-12T06:22:22.422Z,11.27
2023-03-12T06:24:49.690Z,10.57
2023-03-12T06:27:17.312Z,10.63
2023-03-12T06:29:46.263Z,12.45
2023-03-12T06:32:13.594Z,11.30
2023-03-12T06:34:39.960Z,11.43
2023-03-12T06:37:06.360Z,10.50
2023-03-12T06:39:32.868Z,11.07
2023-03-12T06:41:59.224Z,11.77
2023-03-12T06:44:25.564Z,11.00
2023-03-12T06:46:52.149Z,11.88
2023-03-12T06:49:18.524Z,11.30
2023-03-12T06:51:45.020Z,12.05
2023-03-12T06:54:11.500Z,10.93
2023-03-12T06:56:38.224Z,11.15
2023-03-12T06:59:04.632Z,10.93
2023-03-12T07:01:31.207Z,12.10
2023-03-12T07:03:57.704Z,11.20
2023-03-12T07:06:24.935Z,12.07
2023-03-12T07:08:52.411Z,11.27
2023-03-12T07:11:18.968Z,11.52
2023-03-12T07:13:45.452Z,11.68
2023-03-12T07:16:12.625Z,11.52
2023-03-12T07:18:39.126Z,12.00
2023-03-12T07:21:05.713Z,11.77
2023-03-12T07:23:32.100Z,11.80
2023-03-12T07:25:58.494Z,11.85
2023-03-12T07:28:24.886Z,11.85
2023-03-12T07:30:51.307Z,12.13
2023-03-12T07:33:20.436Z,12.20
2023-03-12T07:35:50.186Z,12.90
2023-03-12T07:38:18.094Z,13.18
2023-03-12T07:40:44.912Z,12.65
2023-03-12T07:43:12.631Z,13.38
2023-03-12T07:45:40.872Z,12.60
2023-03-12T07:48:08.220Z,13.15
2023-03-12T07:50:35.886Z,11.88
2023-03-12T07:53:02.351Z,13.05
2023-03-12T07:55:28.859Z,12.30
2023-03-12T07:57:58.277Z,13.05
2023-03-12T08:00:26.304Z,12.65
2023-03-12T08:02:53.088Z,12.90
2023-03-12T08:05:20.131Z,13.55
2023-03-12T08:07:46.646Z,11.38
2023-03-12T08:10:13.115Z,12.88
2023-03-12T08:12:39.556Z,14.65
2023-03-12T08:15:08.332Z,13.98
2023-03-12T08:17:35.275Z,12.10
2023-03-12T08:20:01.758Z,12.68
2023-03-12T08:22:28.194Z,12.52
2023-03-12T08:24:54.615Z,14.25
2023-03-12T08:27:21.044Z,12.02
2023-03-12T08:29:47.423Z,12.77
2023-03-12T08:32:16.965Z,15.60
2023-03-12T08:34:43.398Z,13.15
2023-03-12T08:37:09.841Z,12.95
2023-03-12T08:39:36.671Z,12.68
2023-03-12T08:42:03.774Z,14.35
2023-03-12T08:44:30.270Z,16.00
2023-03-12T08:46:57.052Z,14.40
2023-03-12T08:49:23.489Z,15.48
2023-03-12T08:51:51.743Z,14.52
2023-03-12T08:54:19.200Z,16.15
2023-03-12T08:56:46.548Z,14.70
2023-03-12T08:59:13.592Z,14.82
2023-03-12T09:01:43.548Z,15.68
2023-03-12T09:04:10.631Z,14.55
2023-03-12T09:06:38.290Z,15.70
2023-03-12T09:09:05.568Z,15.10
2023-03-12T09:11:33.718Z,16.73
2023-03-12T09:14:57.454Z,16.42
2023-03-12T09:16:47.337Z,15.95
2023-03-12T09:19:13.789Z,17.98
2023-03-12T09:21:40.297Z,18.70
2023-03-12T09:24:07.794Z,17.75
2023-03-12T09:26:34.379Z,19.15
2023-03-12T09:29:00.788Z,21.30
2023-03-12T09:31:27.411Z,19.13
2023-03-12T09:33:53.761Z,19.38
2023-03-12T09:36:20.246Z,22.60
2023-03-12T09:38:46.837Z,21.58
2023-03-12T09:41:19.607Z,20.60
2023-03-12T09:43:52.817Z,20.67
2023-03-12T09:46:29.392Z,19.83
2023-03-12T09:48:58.839Z,19.45
2023-03-12T09:51:38.051Z,20.42
2023-03-12T09:54:14.204Z,22.13
2023-03-12T09:56:41.115Z,19.13
2023-03-12T09:59:12.856Z,20.60
2023-03-12T10:01:47.834Z,19.95
2023-03-12T10:04:58.181Z,19.83
2023-03-12T10:07:37.799Z,20.38
2023-03-12T10:10:13.516Z,22.00
2023-03-12T10:12:47.618Z,21.45
2023-03-12T10:15:31.771Z,20.75
2023-03-12T10:18:13.530Z,20.40
2023-03-12T10:21:07.491Z,18.45
2023-03-12T10:23:43.204Z,19.65
2023-03-12T10:26:16.794Z,17.33
2023-03-12T10:28:48.166Z,19.63
2023-03-12T10:31:29.505Z,17.40
2023-03-12T10:33:59.061Z,17.27
2023-03-12T10:36:39.355Z,17.95
2023-03-12T10:39:18.252Z,18.73
2023-03-12T10:41:46.216Z,18.17
2023-03-12T10:44:24.533Z,18.90
2023-03-12T10:47:23.479Z,18.67
2023-03-12T10:49:51.064Z,18.42
2023-03-12T10:52:20.343Z,18.67
2023-03-12T10:54:51.126Z,18.17
2023-03-12T10:57:18.740Z,18.20
2023-03-12T10:59:47.780Z,19.02
2023-03-12T11:02:39.820Z,18.20
2023-03-12T11:05:29.441Z,17.90
2023-03-12T11:07:57.160Z,17.02
2023-03-12T11:10:44.777Z,17.15
2023-03-12T11:13:27.175Z,17.70
2023-03-12T11:15:55.333Z,18.85
2023-03-12T11:18:34.346Z,16.98
2023-03-12T11:21:08.639Z,18.95
2023-03-12T11:23:43.047Z,18.40
2023-03-12T11:26:22.058Z,19.17
2023-03-12T11:28:59.285Z,20.13
2023-03-12T11:31:31.159Z,19.88
2023-03-12T11:34:05.637Z,23.02
2023-03-12T11:36:43.491Z,21.02
2023-03-12T11:39:48.626Z,20.15
2023-03-12T11:42:36.579Z,19.67
2023-03-12T11:45:32.938Z,21.25
2023-03-12T11:48:42.246Z,19.08
2023-03-12T11:51:19.589Z,19.70
2023-03-12T11:54:04.096Z,21.33
2023-03-12T11:56:36.097Z,19.45
2023-03-12T11:59:27.147Z,21.20
2023-03-12T12:02:10.537Z,21.73
2023-03-12T12:04:55.721Z,21.70
2023-03-12T12:08:08.401Z,18.58
2023-03-12T12:11:01.802Z,19.38
2023-03-12T12:13:37.242Z,20.17
2023-03-12T12:16:23.996Z,21.05
2023-03-12T12:19:18.159Z,20.33
2023-03-12T12:22:03.380Z,20.52
2023-03-12T12:24:32.644Z,20.60
2023-03-12T12:27:17.254Z,21.15
2023-03-12T12:30:08.477Z,20.85
2023-03-12T12:33:09.181Z,21.67
2023-03-12T12:35:38.616Z,21.13
2023-03-12T12:38:16.350Z,21.15
2023-03-12T12:40:48.686Z,20.45
2023-03-12T12:43:18.008Z,16.15
2023-03-12T12:45:48.736Z,21.55
2023-03-12T12:48:22.731Z,20.20
2023-03-12T12:50:53.541Z,20.80
2023-03-12T12:53:32.762Z,23.00
2023-03-12T12:56:20.066Z,21.73
2023-03-12T12:59:00.477Z,21.02
2023-03-12T13:01:28.060Z,21.05
2023-03-12T13:04:01.203Z,21.52
2023-03-12T13:06:30.072Z,20.25
2023-03-12T13:08:56.587Z,20.88
2023-03-12T13:11:27.049Z,20.27
2023-03-12T13:14:02.785Z,20.83
2023-03-12T13:16:39.023Z,21.42
2023-03-12T13:19:22.483Z,21.02
2023-03-12T13:22:12.977Z,22.08
2023-03-12T13:24:45.097Z,21.10
2023-03-12T13:27:44.950Z,17.47
2023-03-12T13:30:33.051Z,21.75
2023-03-12T13:33:01.511Z,21.23
2023-03-12T13:35:40.465Z,21.95
2023-03-12T13:38:33.470Z,20.80
2023-03-12T13:41:06.732Z,20.60
2023-03-12T13:43:35.967Z,22.20
2023-03-12T13:46:28.423Z,20.65
2023-03-12T13:49:00.395Z,21.43
2023-03-12T13:51:27.742Z,16.77
2023-03-12T13:54:00.005Z,21.77
2023-03-12T13:56:29.349Z,20.60
2023-03-12T13:58:55.667Z,22.65
2023-03-12T14:01:26.729Z,22.10
2023-03-12T14:03:56.974Z,21.08
2023-03-12T14:06:28.621Z,21.33
2023-03-12T14:09:06.899Z,19.67
2023-03-12T14:11:33.605Z,22.15
2023-03-12T14:14:20.692Z,21.40
2023-03-12T14:16:50.922Z,24.15
2023-03-12T14:19:23.244Z,26.23
2023-03-12T14:21:51.296Z,28.55
2023-03-12T14:24:37.003Z,24.05
2023-03-12T14:27:06.366Z,22.67
2023-03-12T14:29:38.914Z,24.20
2023-03-12T14:32:13.632Z,23.63
2023-03-12T14:34:47.688Z,22.88
2023-03-12T14:37:24.002Z,22.75
2023-03-12T14:40:25.349Z,22.73
2023-03-12T14:42:51.773Z,19.98
2023-03-12T14:45:21.279Z,19.27
2023-03-12T14:47:58.523Z,21.55
2023-03-12T14:50:27.986Z,21.00
2023-03-12T14:52:55.853Z,21.48
2023-03-12T14:55:25.051Z,20.13
2023-03-12T14:58:16.723Z,20.25
2023-03-12T15:00:45.832Z,22.83
2023-03-12T15:03:16.607Z,22.33
2023-03-12T15:05:47.705Z,20.63
2023-03-12T15:08:15.190Z,21.67
2023-03-12T15:10:48.385Z,20.55
2023-03-12T15:13:17.072Z,18.90
2023-03-12T15:15:47.290Z,18.02
2023-03-12T15:18:18.561Z,19.17
2023-03-12T15:20:47.390Z,19.27
2023-03-12T15:23:15.685Z,17.83
2023-03-12T15:25:42.328Z,17.67
2023-03-12T15:28:26.502Z,18.20
2023-03-12T15:31:07.118Z,19.73
2023-03-12T15:33:34.037Z,19.08
2023-03-12T15:36:06.360Z,20.48
2023-03-12T15:38:35.040Z,20.42
2023-03-12T15:41:07.768Z,18.67
2023-03-12T15:43:34.787Z,20.92
2023-03-12T15:46:05.959Z,19.88
2023-03-12T15:48:39.478Z,20.38
2023-03-12T15:51:36.301Z,19.20
2023-03-12T15:54:27.244Z,25.40
2023-03-12T15:56:53.904Z,22.05
2023-03-12T15:59:25.121Z,25.60
2023-03-12T16:01:53.879Z,20.88
2023-03-12T16:04:21.119Z,19.52
2023-03-12T16:06:49.064Z,19.42
2023-03-12T16:09:22.534Z,19.27
2023-03-12T16:11:49.263Z,17.50
2023-03-12T16:14:27.705Z,21.15
2023-03-12T16:16:54.162Z,22.70
2023-03-12T16:19:22.974Z,21.02
2023-03-12T16:21:49.954Z,20.88
2023-03-12T16:24:16.860Z,18.92
2023-03-12T16:26:56.745Z,21.23
2023-03-12T16:29:31.321Z,20.02
2023-03-12T16:31:58.294Z,19.70
2023-03-12T16:34:25.092Z,22.95
2023-03-12T16:36:51.681Z,22.73
2023-03-12T16:39:19.022Z,24.52
2023-03-12T16:41:46.438Z,20.50
2023-03-12T16:44:20.276Z,19.50
2023-03-12T16:46:47.210Z,18.55
2023-03-12T16:49:16.296Z,18.17
2023-03-12T16:51:43.036Z,18.23
2023-03-12T16:54:11.840Z,19.25
2023-03-12T16:56:42.981Z,20.38
2023-03-12T16:59:23.858Z,19.90
2023-03-12T17:01:50.648Z,18.08
2023-03-12T17:04:17.101Z,16.58
2023-03-12T17:06:43.513Z,17.42
2023-03-12T17:09:09.887Z,16.50
2023-03-12T17:11:37.792Z,15.45
2023-03-12T17:14:21.879Z,15.82
2023-03-12T17:16:48.572Z,16.75
2023-03-12T17:19:14.953Z,17.80
2023-03-12T17:21:41.915Z,18.27
2023-03-12T17:24:10.302Z,18.20
2023-03-12T17:26:36.907Z,17.75
2023-03-12T17:29:03.331Z,18.42
2023-03-12T17:31:29.823Z,19.75
2023-03-12T17:33:56.295Z,18.23
2023-03-12T17:36:23.025Z,18.67
2023-03-12T17:38:50.956Z,17.30
2023-03-12T17:41:25.893Z,19.40
2023-03-12T17:43:54.707Z,17.77
2023-03-12T17:46:21.276Z,17.77
2023-03-12T17:48:47.692Z,17.98
2023-03-12T17:51:14.065Z,17.65
2023-03-12T17:53:41.742Z,18.00
2023-03-12T17:56:08.153Z,16.55
2023-03-12T17:58:34.603Z,17.75
2023-03-12T18:01:01.318Z,17.52
2023-03-12T18:03:27.824Z,15.95
2023-03-12T18:05:54.397Z,15.38
2023-03-12T18:08:21.390Z,14.52
2023-03-12T18:10:48.412Z,14.98
2023-03-12T18:13:14.851Z,12.48
2023-03-12T18:15:41.365Z,13.48
2023-03-12T18:18:07.852Z,11.35
2023-03-12T18:20:39.186Z,10.82
2023-03-12T18:23:06.614Z,9.17
2023-03-12T18:25:33.041Z,12.07
2023-03-12T18:27:59.486Z,11.50
2023-03-12T18:30:26.158Z,15.15
2023-03-12T18:32:52.579Z,16.23
2023-03-12T18:35:19.032Z,15.02
2023-03-12T18:37:46.029Z,15.35
2023-03-12T18:40:12.664Z,14.50
2023-03-12T18:42:44.193Z,13.82
2023-03-12T18:45:11.792Z,13.43
2023-03-12T18:47:41.882Z,12.20
2023-03-12T18:50:09.536Z,9.95
2023-03-12T18:52:35.918Z,10.15
2023-03-12T18:55:02.492Z,9.32
2023-03-12T18:57:28.927Z,10.15
2023-03-12T18:59:55.910Z,11.15
2023-03-12T19:02:23.586Z,9.98
2023-03-12T19:04:55.923Z,10.65
2023-03-12T19:07:22.792Z,10.73
2023-03-12T19:09:49.217Z,9.68
2023-03-12T19:12:15.846Z,10.30
2023-03-12T19:14:42.389Z,10.98
2023-03-12T19:17:08.817Z,10.20
2023-03-12T19:19:35.278Z,11.07
2023-03-12T19:22:01.755Z,11.52
2023-03-12T19:24:28.175Z,8.88
2023-03-12T19:26:54.624Z,8.85
2023-03-12T19:29:20.984Z,9.20
2023-03-12T19:31:47.747Z,8.20
2023-03-12T19:34:14.303Z,10.02
2023-03-12T19:36:40.793Z,10.95
2023-03-12T19:39:15.252Z,12.20
2023-03-12T19:41:46.817Z,10.20
2023-03-12T19:44:13.187Z,10.38
2023-03-12T19:46:42.830Z,8.60
2023-03-12T19:49:09.356Z,9.35
2023-03-12T19:51:35.994Z,9.63
2023-03-12T19:54:02.522Z,9.82
2023-03-12T19:56:29.287Z,10.77
2023-03-12T19:58:55.638Z,8.52
2023-03-12T20:01:22.806Z,8.95
2023-03-12T20:03:49.211Z,9.70
2023-03-12T20:06:15.596Z,19.67
2023-03-12T20:08:41.998Z,15.25
2023-03-12T20:11:10.196Z,12.07
2023-03-12T20:13:40.083Z,12.32
2023-03-12T20:16:07.454Z,9.38
2023-03-12T20:18:34.098Z,8.77
2023-03-12T20:21:00.494Z,8.13
2023-03-12T20:23:27.180Z,10.43
2023-03-12T20:25:53.723Z,8.98
2023-03-12T20:28:20.122Z,8.57
2023-03-12T20:30:46.570Z,9.23
2023-03-12T20:33:13.612Z,8.60
2023-03-12T20:35:40.149Z,9.23
2023-03-12T20:38:06.637Z,9.57
2023-03-12T20:40:33.238Z,8.30
2023-03-12T20:43:02.345Z,8.05
2023-03-12T20:45:30.185Z,9.35
2023-03-12T20:47:57.727Z,8.15
2023-03-12T20:50:25.389Z,9.90
2023-03-12T20:52:51.899Z,9.93
2023-03-12T20:55:18.789Z,8.48
2023-03-12T20:57:45.199Z,9.13
2023-03-12T21:00:12.129Z,7.82
2023-03-12T21:02:38.679Z,8.77
2023-03-12T21:05:05.346Z,8.32
2023-03-12T21:07:31.871Z,8.00
2023-03-12T21:09:58.552Z,8.70
2023-03-12T21:12:25.028Z,9.35
2023-03-12T21:14:51.442Z,8.18
2023-03-12T21:17:17.787Z,8.20
2023-03-12T21:19:44.394Z,8.35
2023-03-12T21:22:10.750Z,7.07
2023-03-12T21:24:37.273Z,8.43
2023-03-12T21:27:03.877Z,10.13
2023-03-12T21:29:30.306Z,9.13
2023-03-12T21:31:57.344Z,7.93
2023-03-12T21:34:23.750Z,7.78
2023-03-12T21:36:50.173Z,7.65
2023-03-12T21:39:17.280Z,7.05
2023-03-12T21:41:43.673Z,7.45
2023-03-12T21:44:10.122Z,9.10
2023-03-12T21:46:36.678Z,8.25
2023-03-12T21:49:03.306Z,9.73
2023-03-12T21:51:29.708Z,8.10
2023-03-12T21:53:57.861Z,8.52
2023-03-12T21:56:28.113Z,8.13
2023-03-12T21:58:56.560Z,12.43
2023-03-12T22:01:23.280Z,9.18
2023-03-12T22:03:50.224Z,7.65
2023-03-12T22:06:16.873Z,7.43
2023-03-12T22:08:47.952Z,6.78
2023-03-12T22:11:15.397Z,7.63
2023-03-12T22:13:42.135Z,13.35
2023-03-12T22:16:08.843Z,10.10
2023-03-12T22:18:40.648Z,9.75
2023-03-12T22:21:08.000Z,8.82
2023-03-12T22:23:36.111Z,8.35
2023-03-12T22:26:04.671Z,8.23
2023-03-12T22:28:31.723Z,9.45
2023-03-12T22:30:59.671Z,9.73
2023-03-12T22:33:27.022Z,11.02
2023-03-12T22:35:54.134Z,7.90
2023-03-12T22:38:21.403Z,7.00
2023-03-12T22:43:35.877Z,4.05
2023-03-12T22:46:02.392Z,3.30
2023-03-12T22:48:28.751Z,3.67
2023-03-12T22:50:55.092Z,4.22
2023-03-12T22:53:21.471Z,3.92
2023-03-12T22:55:56.542Z,3.35
2023-03-12T22:58:22.904Z,4.30
2023-03-12T23:00:49.234Z,5.97
2023-03-12T23:03:15.730Z,4.40
2023-03-12T23:05:42.092Z,4.35
2023-03-12T23:08:08.580Z,2.90
2023-03-12T23:10:34.932Z,4.15
2023-03-12T23:13:01.354Z,3.47
2023-03-12T23:15:38.759Z,4.13
2023-03-12T23:18:06.860Z,3.75
2023-03-12T23:20:33.196Z,4.05
2023-03-12T23:22:59.686Z,3.83
2023-03-12T23:25:26.051Z,3.38
2023-03-12T23:27:52.387Z,3.60
2023-03-12T23:30:18.820Z,4.93
2023-03-12T23:32:45.294Z,3.88
2023-03-12T23:35:11.708Z,4.72
2023-03-12T23:37:38.126Z,3.72
2023-03-12T23:40:06.487Z,4.70
2023-03-12T23:42:33.112Z,5.18
2023-03-12T23:44:59.443Z,4.80
2023-03-12T23:47:25.811Z,4.40
2023-03-12T23:49:52.210Z,5.30
2023-03-12T23:52:18.660Z,4.05
2023-03-12T23:54:45.126Z,4.15
2023-03-12T23:57:11.524Z,4.65
2023-03-12T23:59:37.836Z,3.88
